sensor_id;sensor_type;location;lat;lon;timestamp;temperature;humidity
29203;DHT22;16245;51.170;4.884;2023-04-03T05:00:13;0.90;99.90
29203;DHT22;16245;51.170;4.884;2023-04-03T05:02:38;0.90;99.90
29203;DHT22;16245;51.170;4.884;2023-04-03T05:05:04;1.00;99.90
29203;DHT22;16245;51.170;4.884;2023-04-03T05:07:30;1.00;99.90
29203;DHT22;16245;51.170;4.884;2023-04-03T05:09:56;1.00;99.90
29203;DHT22;16245;51.170;4.884;2023-04-03T05:12:21;1.10;99.90
29203;DHT22;16245;51.170;4.884;2023-04-03T05:14:47;1.10;99.90
29203;DHT22;16245;51.170;4.884;2023-04-03T05:17:13;1.20;99.90
29203;DHT22;16245;51.170;4.884;2023-04-03T05:19:38;1.20;99.90
29203;DHT22;16245;51.170;4.884;2023-04-03T05:22:04;1.20;99.90
29203;DHT22;16245;51.170;4.884;2023-04-03T05:24:30;1.20;99.90
29203;DHT22;16245;51.170;4.884;2023-04-03T05:26:55;1.20;99.90
29203;DHT22;16245;51.170;4.884;2023-04-03T05:29:22;1.40;99.90
29203;DHT22;16245;51.170;4.884;2023-04-03T05:31:49;1.80;99.90
29203;DHT22;16245;51.170;4.884;2023-04-03T05:34:15;2.20;99.90
29203;DHT22;16245;51.170;4.884;2023-04-03T05:36:41;2.70;99.90
29203;DHT22;16245;51.170;4.884;2023-04-03T05:39:07;3.20;99.90
29203;DHT22;16245;51.170;4.884;2023-04-03T05:41:33;3.60;99.90
29203;DHT22;16245;51.170;4.884;2023-04-03T05:43:59;4.10;99.90
29203;DHT22;16245;51.170;4.884;2023-04-03T05:46:24;4.40;99.90
29203;DHT22;16245;51.170;4.884;2023-04-03T05:48:50;4.60;99.90
29203;DHT22;16245;51.170;4.884;2023-04-03T05:51:23;4.90;99.90
29203;DHT22;16245;51.170;4.884;2023-04-03T05:53:55;5.20;99.90
29203;DHT22;16245;51.170;4.884;2023-04-03T05:56:22;5.20;99.90
29203;DHT22;16245;51.170;4.884;2023-04-03T05:58:47;5.40;99.90
29203;DHT22;16245;51.170;4.884;2023-04-03T06:01:13;5.30;99.90
29203;DHT22;16245;51.170;4.884;2023-04-03T06:03:39;5.30;99.90
29203;DHT22;16245;51.170;4.884;2023-04-03T06:06:05;5.40;99.90
29203;DHT22;16245;51.170;4.884;2023-04-03T06:08:31;5.40;99.90
29203;DHT22;16245;51.170;4.884;2023-04-03T06:10:58;5.20;99.90
29203;DHT22;16245;51.170;4.884;2023-04-03T06:13:25;4.90;99.90
29203;DHT22;16245;51.170;4.884;2023-04-03T06:15:50;4.70;99.90
29203;DHT22;16245;51.170;4.884;2023-04-03T06:18:16;4.40;99.90
29203;DHT22;16245;51.170;4.884;2023-04-03T06:20:41;4.30;99.90
29203;DHT22;16245;51.170;4.884;2023-04-03T06:23:07;4.20;99.90
29203;DHT22;16245;51.170;4.884;2023-04-03T06:25:33;4.00;99.90
29203;DHT22;16245;51.170;4.884;2023-04-03T06:27:59;4.20;99.90
29203;DHT22;16245;51.170;4.884;2023-04-03T06:30:24;4.50;99.90
29203;DHT22;16245;51.170;4.884;2023-04-03T06:32:51;4.90;99.90
29203;DHT22;16245;51.170;4.884;2023-04-03T06:35:17;5.50;99.90
29203;DHT22;16245;51.170;4.884;2023-04-03T06:37:43;6.30;99.90
29203;DHT22;16245;51.170;4.884;2023-04-03T06:40:18;6.60;99.90
29203;DHT22;16245;51.170;4.884;2023-04-03T06:42:46;6.50;99.90
29203;DHT22;16245;51.170;4.884;2023-04-03T06:45:11;6.10;99.90
29203;DHT22;16245;51.170;4.884;2023-04-03T06:47:37;5.70;99.90
29203;DHT22;16245;51.170;4.884;2023-04-03T06:50:03;5.70;99.90
29203;DHT22;16245;51.170;4.884;2023-04-03T06:52:29;6.00;99.90
29203;DHT22;16245;51.170;4.884;2023-04-03T06:54:55;6.90;99.90
29203;DHT22;16245;51.170;4.884;2023-04-03T06:57:23;7.70;99.90
29203;DHT22;16245;51.170;4.884;2023-04-03T06:59:49;7.60;99.90
29203;DHT22;16245;51.170;4.884;2023-04-03T07:02:15;7.30;99.90
29203;DHT22;16245;51.170;4.884;2023-04-03T07:04:41;7.00;99.90
29203;DHT22;16245;51.170;4.884;2023-04-03T07:07:07;6.90;99.90
29203;DHT22;16245;51.170;4.884;2023-04-03T07:09:33;6.70;99.90
29203;DHT22;16245;51.170;4.884;2023-04-03T07:11:58;6.90;99.90
29203;DHT22;16245;51.170;4.884;2023-04-03T07:14:24;7.10;99.90
29203;DHT22;16245;51.170;4.884;2023-04-03T07:16:50;7.40;99.90
29203;DHT22;16245;51.170;4.884;2023-04-03T07:19:16;7.30;99.90
29203;DHT22;16245;51.170;4.884;2023-04-03T07:21:43;7.30;99.90
29203;DHT22;16245;51.170;4.884;2023-04-03T07:24:10;7.80;99.90
29203;DHT22;16245;51.170;4.884;2023-04-03T07:26:36;8.30;99.90
29203;DHT22;16245;51.170;4.884;2023-04-03T07:29:02;8.90;99.90
29203;DHT22;16245;51.170;4.884;2023-04-03T07:31:28;9.60;99.90
29203;DHT22;16245;51.170;4.884;2023-04-03T07:33:53;10.20;99.90
29203;DHT22;16245;51.170;4.884;2023-04-03T07:36:23;10.60;99.90
29203;DHT22;16245;51.170;4.884;2023-04-03T07:38:49;10.80;99.90
29203;DHT22;16245;51.170;4.884;2023-04-03T07:41:17;11.40;99.90
29203;DHT22;16245;51.170;4.884;2023-04-03T07:43:44;12.00;99.90
29203;DHT22;16245;51.170;4.884;2023-04-03T07:46:10;12.80;99.90
29203;DHT22;16245;51.170;4.884;2023-04-03T07:48:36;13.70;99.90
29203;DHT22;16245;51.170;4.884;2023-04-03T07:51:03;15.10;99.90
29203;DHT22;16245;51.170;4.884;2023-04-03T07:53:29;16.40;99.90
29203;DHT22;16245;51.170;4.884;2023-04-03T07:55:57;17.10;99.90
29203;DHT22;16245;51.170;4.884;2023-04-03T07:58:22;18.10;99.90
29203;DHT22;16245;51.170;4.884;2023-04-03T08:00:48;18.20;99.90
29203;DHT22;16245;51.170;4.884;2023-04-03T08:03:14;18.90;99.90
29203;DHT22;16245;51.170;4.884;2023-04-03T08:05:46;19.80;99.90
29203;DHT22;16245;51.170;4.884;2023-04-03T08:08:17;20.70;99.90
29203;DHT22;16245;51.170;4.884;2023-04-03T08:10:43;21.10;99.40
29203;DHT22;16245;51.170;4.884;2023-04-03T08:13:13;21.00;98.40
29203;DHT22;16245;51.170;4.884;2023-04-03T08:15:38;21.30;98.20
29203;DHT22;16245;51.170;4.884;2023-04-03T08:18:04;21.90;96.70
29203;DHT22;16245;51.170;4.884;2023-04-03T08:20:30;21.50;96.90
29203;DHT22;16245;51.170;4.884;2023-04-03T08:22:56;21.30;96.80
29203;DHT22;16245;51.170;4.884;2023-04-03T08:25:21;21.40;95.70
29203;DHT22;16245;51.170;4.884;2023-04-03T08:27:47;21.90;96.20
29203;DHT22;16245;51.170;4.884;2023-04-03T08:30:13;21.90;94.20
29203;DHT22;16245;51.170;4.884;2023-04-03T08:32:39;22.60;94.40
29203;DHT22;16245;51.170;4.884;2023-04-03T08:35:07;22.60;94.20
29203;DHT22;16245;51.170;4.884;2023-04-03T08:37:35;22.00;93.50
29203;DHT22;16245;51.170;4.884;2023-04-03T08:40:03;22.00;93.30
29203;DHT22;16245;51.170;4.884;2023-04-03T08:48:31;23.20;93.10
29203;DHT22;16245;51.170;4.884;2023-04-03T08:51:00;23.00;92.20
29203;DHT22;16245;51.170;4.884;2023-04-03T08:53:30;23.10;91.50
29203;DHT22;16245;51.170;4.884;2023-04-03T08:55:58;22.80;90.80
29203;DHT22;16245;51.170;4.884;2023-04-03T08:58:41;23.10;92.30
29203;DHT22;16245;51.170;4.884;2023-04-03T09:01:27;23.30;91.30
29203;DHT22;16245;51.170;4.884;2023-04-03T09:03:55;23.30;91.00
29203;DHT22;16245;51.170;4.884;2023-04-03T09:06:26;23.10;90.70
29203;DHT22;16245;51.170;4.884;2023-04-03T09:09:14;22.90;91.20
29203;DHT22;16245;51.170;4.884;2023-04-03T09:14:26;22.90;90.80
29203;DHT22;16245;51.170;4.884;2023-04-03T09:16:59;22.50;87.20
29203;DHT22;16245;51.170;4.884;2023-04-03T09:19:40;22.20;90.00
29203;DHT22;16245;51.170;4.884;2023-04-03T09:22:17;22.70;90.00
29203;DHT22;16245;51.170;4.884;2023-04-03T09:24:45;22.90;89.90
29203;DHT22;16245;51.170;4.884;2023-04-03T09:27:12;23.00;83.60
29203;DHT22;16245;51.170;4.884;2023-04-03T09:29:41;23.60;85.70
29203;DHT22;16245;51.170;4.884;2023-04-03T09:32:27;23.00;84.70
29203;DHT22;16245;51.170;4.884;2023-04-03T09:34:56;23.30;86.10
29203;DHT22;16245;51.170;4.884;2023-04-03T09:37:45;23.40;84.20
29203;DHT22;16245;51.170;4.884;2023-04-03T09:45:44;24.10;83.90
29203;DHT22;16245;51.170;4.884;2023-04-03T09:53:37;23.30;80.70
29203;DHT22;16245;51.170;4.884;2023-04-03T09:58:43;23.30;77.20
29203;DHT22;16245;51.170;4.884;2023-04-03T10:01:31;23.50;76.80
29203;DHT22;16245;51.170;4.884;2023-04-03T10:04:19;23.40;76.70
29203;DHT22;16245;51.170;4.884;2023-04-03T10:06:49;23.40;77.90
29203;DHT22;16245;51.170;4.884;2023-04-03T10:09:47;23.30;72.10
29203;DHT22;16245;51.170;4.884;2023-04-03T10:12:19;23.20;74.80
29203;DHT22;16245;51.170;4.884;2023-04-03T10:14:59;22.60;72.20
29203;DHT22;16245;51.170;4.884;2023-04-03T10:26:19;21.60;74.40
29203;DHT22;16245;51.170;4.884;2023-04-03T10:29:21;21.50;69.60
29203;DHT22;16245;51.170;4.884;2023-04-03T10:32:12;19.70;74.50
29203;DHT22;16245;51.170;4.884;2023-04-03T10:34:45;19.90;78.10
29203;DHT22;16245;51.170;4.884;2023-04-03T10:42:38;20.40;72.80
29203;DHT22;16245;51.170;4.884;2023-04-03T10:48:09;20.70;66.00
29203;DHT22;16245;51.170;4.884;2023-04-03T10:53:51;20.20;67.00
29203;DHT22;16245;51.170;4.884;2023-04-03T10:56:47;20.30;66.80
29203;DHT22;16245;51.170;4.884;2023-04-03T10:59:27;19.70;63.20
29203;DHT22;16245;51.170;4.884;2023-04-03T11:02:11;19.10;66.30
29203;DHT22;16245;51.170;4.884;2023-04-03T11:04:42;19.40;67.30
29203;DHT22;16245;51.170;4.884;2023-04-03T11:07:26;19.50;64.70
29203;DHT22;16245;51.170;4.884;2023-04-03T11:09:56;19.00;67.40
29203;DHT22;16245;51.170;4.884;2023-04-03T11:12:41;18.70;68.60
29203;DHT22;16245;51.170;4.884;2023-04-03T11:15:13;18.80;69.30
29203;DHT22;16245;51.170;4.884;2023-04-03T11:17:46;18.90;66.70
29203;DHT22;16245;51.170;4.884;2023-04-03T11:22:57;18.90;66.90
29203;DHT22;16245;51.170;4.884;2023-04-03T11:25:25;18.80;66.20
29203;DHT22;16245;51.170;4.884;2023-04-03T11:28:00;18.70;71.10
29203;DHT22;16245;51.170;4.884;2023-04-03T11:30:42;18.30;68.10
29203;DHT22;16245;51.170;4.884;2023-04-03T11:33:23;17.90;67.30
29203;DHT22;16245;51.170;4.884;2023-04-03T11:35:57;18.00;68.60
29203;DHT22;16245;51.170;4.884;2023-04-03T11:38:36;17.90;68.70
29203;DHT22;16245;51.170;4.884;2023-04-03T11:41:07;17.70;67.50
29203;DHT22;16245;51.170;4.884;2023-04-03T11:43:33;17.60;70.60
29203;DHT22;16245;51.170;4.884;2023-04-03T11:46:05;17.30;74.70
29203;DHT22;16245;51.170;4.884;2023-04-03T11:56:59;15.60;72.90
29203;DHT22;16245;51.170;4.884;2023-04-03T11:59:24;15.40;75.60
29203;DHT22;16245;51.170;4.884;2023-04-03T12:01:55;15.30;74.90
29203;DHT22;16245;51.170;4.884;2023-04-03T12:04:26;15.20;78.00
29203;DHT22;16245;51.170;4.884;2023-04-03T12:07:13;14.80;78.30
29203;DHT22;16245;51.170;4.884;2023-04-03T12:12:55;13.80;76.20
29203;DHT22;16245;51.170;4.884;2023-04-03T12:15:49;13.30;81.80
29203;DHT22;16245;51.170;4.884;2023-04-03T12:18:53;13.10;80.70
29203;DHT22;16245;51.170;4.884;2023-04-03T12:26:26;13.30;81.80
29203;DHT22;16245;51.170;4.884;2023-04-03T12:28:53;13.30;83.30
29203;DHT22;16245;51.170;4.884;2023-04-03T12:31:24;13.30;82.20
29203;DHT22;16245;51.170;4.884;2023-04-03T12:34:09;13.30;80.50
29203;DHT22;16245;51.170;4.884;2023-04-03T12:48:56;13.00;80.90
29203;DHT22;16245;51.170;4.884;2023-04-03T12:51:38;13.10;83.50
29203;DHT22;16245;51.170;4.884;2023-04-03T12:57:25;13.10;80.60
29203;DHT22;16245;51.170;4.884;2023-04-03T12:59:51;12.90;80.80
29203;DHT22;16245;51.170;4.884;2023-04-03T13:02:19;12.90;83.80
29203;DHT22;16245;51.170;4.884;2023-04-03T13:04:46;12.90;83.20
29203;DHT22;16245;51.170;4.884;2023-04-03T13:07:31;12.80;83.80
29203;DHT22;16245;51.170;4.884;2023-04-03T13:12:49;12.80;81.30
29203;DHT22;16245;51.170;4.884;2023-04-03T13:15:26;12.60;85.10
29203;DHT22;16245;51.170;4.884;2023-04-03T13:17:53;12.80;80.40
29203;DHT22;16245;51.170;4.884;2023-04-03T13:20:29;12.80;83.00
29203;DHT22;16245;51.170;4.884;2023-04-03T13:23:05;12.80;79.40
29203;DHT22;16245;51.170;4.884;2023-04-03T13:25:36;12.60;83.70
29203;DHT22;16245;51.170;4.884;2023-04-03T13:28:05;12.70;82.10
29203;DHT22;16245;51.170;4.884;2023-04-03T13:30:35;12.90;83.10
29203;DHT22;16245;51.170;4.884;2023-04-03T13:33:04;12.90;82.00
29203;DHT22;16245;51.170;4.884;2023-04-03T13:35:40;13.00;82.90
29203;DHT22;16245;51.170;4.884;2023-04-03T13:40:52;12.90;80.20
29203;DHT22;16245;51.170;4.884;2023-04-03T13:43:24;13.00;83.50
29203;DHT22;16245;51.170;4.884;2023-04-03T13:48:48;13.10;82.50
29203;DHT22;16245;51.170;4.884;2023-04-03T13:51:18;13.00;80.40
29203;DHT22;16245;51.170;4.884;2023-04-03T13:59:00;13.00;82.80
29203;DHT22;16245;51.170;4.884;2023-04-03T14:01:43;13.10;82.30
29203;DHT22;16245;51.170;4.884;2023-04-03T14:04:14;13.20;78.80
29203;DHT22;16245;51.170;4.884;2023-04-03T14:06:41;13.10;79.20
29203;DHT22;16245;51.170;4.884;2023-04-03T14:09:06;13.00;82.30
29203;DHT22;16245;51.170;4.884;2023-04-03T14:11:33;13.10;77.60
29203;DHT22;16245;51.170;4.884;2023-04-03T14:14:05;12.80;81.20
29203;DHT22;16245;51.170;4.884;2023-04-03T14:16:32;12.60;81.20
29203;DHT22;16245;51.170;4.884;2023-04-03T14:19:02;12.60;81.10
29203;DHT22;16245;51.170;4.884;2023-04-03T14:21:28;12.60;79.50
29203;DHT22;16245;51.170;4.884;2023-04-03T14:23:53;12.60;80.70
29203;DHT22;16245;51.170;4.884;2023-04-03T14:26:23;12.60;79.80
29203;DHT22;16245;51.170;4.884;2023-04-03T14:28:53;12.70;82.20
29203;DHT22;16245;51.170;4.884;2023-04-03T14:31:20;12.80;77.60
29203;DHT22;16245;51.170;4.884;2023-04-03T14:33:47;12.60;79.50
29203;DHT22;16245;51.170;4.884;2023-04-03T14:36:22;12.70;75.70
29203;DHT22;16245;51.170;4.884;2023-04-03T14:38:49;12.60;76.60
29203;DHT22;16245;51.170;4.884;2023-04-03T14:41:18;12.60;76.10
29203;DHT22;16245;51.170;4.884;2023-04-03T14:43:45;12.60;79.40
29203;DHT22;16245;51.170;4.884;2023-04-03T14:46:17;12.20;75.10
29203;DHT22;16245;51.170;4.884;2023-04-03T14:48:44;12.40;79.40
29203;DHT22;16245;51.170;4.884;2023-04-03T14:51:11;12.60;80.30
29203;DHT22;16245;51.170;4.884;2023-04-03T14:53:38;12.80;78.70
29203;DHT22;16245;51.170;4.884;2023-04-03T14:56:11;12.80;79.40
29203;DHT22;16245;51.170;4.884;2023-04-03T14:58:37;12.90;78.80
29203;DHT22;16245;51.170;4.884;2023-04-03T15:01:03;12.90;79.00
29203;DHT22;16245;51.170;4.884;2023-04-03T15:03:28;12.90;79.30
29203;DHT22;16245;51.170;4.884;2023-04-03T15:05:54;12.80;79.30
29203;DHT22;16245;51.170;4.884;2023-04-03T15:08:25;12.40;78.80
29203;DHT22;16245;51.170;4.884;2023-04-03T15:10:55;12.20;79.40
29203;DHT22;16245;51.170;4.884;2023-04-03T15:13:22;12.00;82.10
29203;DHT22;16245;51.170;4.884;2023-04-03T15:15:48;12.10;81.40
29203;DHT22;16245;51.170;4.884;2023-04-03T15:18:18;12.00;82.10
29203;DHT22;16245;51.170;4.884;2023-04-03T15:20:44;12.00;85.20
29203;DHT22;16245;51.170;4.884;2023-04-03T15:23:14;12.00;85.00
29203;DHT22;16245;51.170;4.884;2023-04-03T15:25:42;12.00;86.20
29203;DHT22;16245;51.170;4.884;2023-04-03T15:28:16;12.10;84.00
29203;DHT22;16245;51.170;4.884;2023-04-03T15:30:43;12.10;84.90
29203;DHT22;16245;51.170;4.884;2023-04-03T15:33:09;12.00;82.90
29203;DHT22;16245;51.170;4.884;2023-04-03T15:35:34;12.00;84.20
29203;DHT22;16245;51.170;4.884;2023-04-03T15:38:00;11.90;83.80
29203;DHT22;16245;51.170;4.884;2023-04-03T15:40:26;12.00;85.70
29203;DHT22;16245;51.170;4.884;2023-04-03T15:42:51;12.10;85.60
29203;DHT22;16245;51.170;4.884;2023-04-03T15:45:17;12.00;85.00
29203;DHT22;16245;51.170;4.884;2023-04-03T15:47:43;11.90;84.80
29203;DHT22;16245;51.170;4.884;2023-04-03T15:50:09;11.90;86.60
29203;DHT22;16245;51.170;4.884;2023-04-03T15:52:35;11.90;87.70
29203;DHT22;16245;51.170;4.884;2023-04-03T15:55:01;11.80;86.40
29203;DHT22;16245;51.170;4.884;2023-04-03T15:57:27;11.70;87.40
29203;DHT22;16245;51.170;4.884;2023-04-03T15:59:53;11.80;87.20
29203;DHT22;16245;51.170;4.884;2023-04-03T16:02:19;11.80;87.60
29203;DHT22;16245;51.170;4.884;2023-04-03T16:04:45;11.70;86.90
29203;DHT22;16245;51.170;4.884;2023-04-03T16:07:11;11.70;88.80
29203;DHT22;16245;51.170;4.884;2023-04-03T16:09:36;11.60;87.40
29203;DHT22;16245;51.170;4.884;2023-04-03T16:12:02;11.60;87.60
29203;DHT22;16245;51.170;4.884;2023-04-03T16:14:28;11.50;86.70
29203;DHT22;16245;51.170;4.884;2023-04-03T16:16:56;11.50;86.90
29203;DHT22;16245;51.170;4.884;2023-04-03T16:19:22;11.50;87.70
29203;DHT22;16245;51.170;4.884;2023-04-03T16:21:48;11.40;87.10
29203;DHT22;16245;51.170;4.884;2023-04-03T16:24:15;11.30;86.90
29203;DHT22;16245;51.170;4.884;2023-04-03T16:26:40;11.20;86.10
29203;DHT22;16245;51.170;4.884;2023-04-03T16:29:06;11.20;87.50
29203;DHT22;16245;51.170;4.884;2023-04-03T16:31:32;11.10;86.60
29203;DHT22;16245;51.170;4.884;2023-04-03T16:33:58;11.00;88.60
29203;DHT22;16245;51.170;4.884;2023-04-03T16:36:25;11.00;89.30
29203;DHT22;16245;51.170;4.884;2023-04-03T16:38:51;11.00;88.70
29203;DHT22;16245;51.170;4.884;2023-04-03T16:41:17;10.80;87.80
29203;DHT22;16245;51.170;4.884;2023-04-03T16:43:42;10.70;88.40
29203;DHT22;16245;51.170;4.884;2023-04-03T16:46:08;10.60;88.10
29203;DHT22;16245;51.170;4.884;2023-04-03T16:48:34;10.50;89.40
29203;DHT22;16245;51.170;4.884;2023-04-03T16:51:00;10.50;88.60
29203;DHT22;16245;51.170;4.884;2023-04-03T16:53:27;10.50;89.60
29203;DHT22;16245;51.170;4.884;2023-04-03T16:55:53;10.50;88.70
29203;DHT22;16245;51.170;4.884;2023-04-03T16:58:18;10.50;89.90
29203;DHT22;16245;51.170;4.884;2023-04-03T17:00:44;10.50;90.50
29203;DHT22;16245;51.170;4.884;2023-04-03T17:03:10;10.40;90.00
29203;DHT22;16245;51.170;4.884;2023-04-03T17:05:36;10.30;89.90
29203;DHT22;16245;51.170;4.884;2023-04-03T17:08:02;10.20;90.10
29203;DHT22;16245;51.170;4.884;2023-04-03T17:10:28;10.10;90.60
29203;DHT22;16245;51.170;4.884;2023-04-03T17:12:53;10.10;90.90
29203;DHT22;16245;51.170;4.884;2023-04-03T17:15:20;10.10;91.40
29203;DHT22;16245;51.170;4.884;2023-04-03T17:17:49;10.00;90.80
29203;DHT22;16245;51.170;4.884;2023-04-03T17:20:16;10.00;90.50
29203;DHT22;16245;51.170;4.884;2023-04-03T17:22:42;10.00;90.30
29203;DHT22;16245;51.170;4.884;2023-04-03T17:25:09;9.90;91.20
29203;DHT22;16245;51.170;4.884;2023-04-03T17:27:35;9.80;91.00
29203;DHT22;16245;51.170;4.884;2023-04-03T17:30:01;9.70;91.10
29203;DHT22;16245;51.170;4.884;2023-04-03T17:32:27;9.50;91.60
29203;DHT22;16245;51.170;4.884;2023-04-03T17:34:52;9.50;91.60
29203;DHT22;16245;51.170;4.884;2023-04-03T17:37:18;9.50;91.40
29203;DHT22;16245;51.170;4.884;2023-04-03T17:39:44;9.30;91.40
29203;DHT22;16245;51.170;4.884;2023-04-03T17:42:11;9.30;91.80
29203;DHT22;16245;51.170;4.884;2023-04-03T17:44:37;9.20;92.10
29203;DHT22;16245;51.170;4.884;2023-04-03T17:47:02;9.10;92.70
29203;DHT22;16245;51.170;4.884;2023-04-03T17:49:28;9.00;92.50
29203;DHT22;16245;51.170;4.884;2023-04-03T17:51:54;9.00;92.20
29203;DHT22;16245;51.170;4.884;2023-04-03T17:54:20;8.90;91.90
29203;DHT22;16245;51.170;4.884;2023-04-03T17:56:46;8.90;92.20
29203;DHT22;16245;51.170;4.884;2023-04-03T17:59:15;8.90;92.30
29203;DHT22;16245;51.170;4.884;2023-04-03T18:01:46;8.80;92.40
29203;DHT22;16245;51.170;4.884;2023-04-03T18:04:12;8.70;92.80
29203;DHT22;16245;51.170;4.884;2023-04-03T18:06:42;8.60;93.00
29203;DHT22;16245;51.170;4.884;2023-04-03T18:09:35;8.60;92.90
29203;DHT22;16245;51.170;4.884;2023-04-03T18:12:04;8.50;92.60
29203;DHT22;16245;51.170;4.884;2023-04-03T18:14:32;8.40;93.00
29203;DHT22;16245;51.170;4.884;2023-04-03T18:16:58;8.30;93.20
29203;DHT22;16245;51.170;4.884;2023-04-03T18:19:25;8.20;93.50
29203;DHT22;16245;51.170;4.884;2023-04-03T18:21:54;8.10;93.60
29203;DHT22;16245;51.170;4.884;2023-04-03T18:24:21;8.10;93.70
29203;DHT22;16245;51.170;4.884;2023-04-03T18:26:54;8.00;93.90
29203;DHT22;16245;51.170;4.884;2023-04-03T18:29:22;7.90;94.30
29203;DHT22;16245;51.170;4.884;2023-04-03T18:31:51;7.90;94.40
29203;DHT22;16245;51.170;4.884;2023-04-03T18:34:17;7.90;94.70
29203;DHT22;16245;51.170;4.884;2023-04-03T18:43:27;7.70;95.20
29203;DHT22;16245;51.170;4.884;2023-04-03T18:45:53;7.60;95.50
29203;DHT22;16245;51.170;4.884;2023-04-03T18:48:19;7.60;95.30
29203;DHT22;16245;51.170;4.884;2023-04-03T18:50:46;7.60;95.60
29203;DHT22;16245;51.170;4.884;2023-04-03T18:53:12;7.50;95.90
29203;DHT22;16245;51.170;4.884;2023-04-03T18:55:38;7.50;95.60
29203;DHT22;16245;51.170;4.884;2023-04-03T18:58:04;7.50;95.70
29203;DHT22;16245;51.170;4.884;2023-04-03T19:00:31;7.40;95.70
29203;DHT22;16245;51.170;4.884;2023-04-03T19:02:57;7.30;96.00
29203;DHT22;16245;51.170;4.884;2023-04-03T19:05:23;7.30;95.90
29203;DHT22;16245;51.170;4.884;2023-04-03T19:07:53;7.30;95.60
29203;DHT22;16245;51.170;4.884;2023-04-03T19:10:20;7.20;95.90
29203;DHT22;16245;51.170;4.884;2023-04-03T19:12:48;7.10;96.10
29203;DHT22;16245;51.170;4.884;2023-04-03T19:15:16;7.00;96.30
29203;DHT22;16245;51.170;4.884;2023-04-03T19:17:43;7.00;96.40
29203;DHT22;16245;51.170;4.884;2023-04-03T19:20:10;7.00;96.60
29203;DHT22;16245;51.170;4.884;2023-04-03T19:22:36;6.90;96.50
29203;DHT22;16245;51.170;4.884;2023-04-03T19:25:03;7.00;96.70
29203;DHT22;16245;51.170;4.884;2023-04-03T19:27:30;6.80;96.80
29203;DHT22;16245;51.170;4.884;2023-04-03T19:29:56;6.70;97.10
29203;DHT22;16245;51.170;4.884;2023-04-03T19:32:21;6.70;97.30
29203;DHT22;16245;51.170;4.884;2023-04-03T19:34:47;6.60;97.10
29203;DHT22;16245;51.170;4.884;2023-04-03T19:37:13;6.60;97.20
29203;DHT22;16245;51.170;4.884;2023-04-03T19:39:39;6.60;97.40
29203;DHT22;16245;51.170;4.884;2023-04-03T19:42:05;6.60;97.60
29203;DHT22;16245;51.170;4.884;2023-04-03T19:44:33;6.50;97.50
29203;DHT22;16245;51.170;4.884;2023-04-03T19:46:59;6.40;97.60
29203;DHT22;16245;51.170;4.884;2023-04-03T19:49:25;6.40;97.50
29203;DHT22;16245;51.170;4.884;2023-04-03T19:51:51;6.40;97.70
29203;DHT22;16245;51.170;4.884;2023-04-03T19:54:18;6.30;97.70
29203;DHT22;16245;51.170;4.884;2023-04-03T19:56:44;6.30;97.90
29203;DHT22;16245;51.170;4.884;2023-04-03T19:59:10;6.30;98.20
29203;DHT22;16245;51.170;4.884;2023-04-03T20:01:35;6.30;98.10
29203;DHT22;16245;51.170;4.884;2023-04-03T20:04:01;6.30;98.10
29203;DHT22;16245;51.170;4.884;2023-04-03T20:06:27;6.10;98.10
29203;DHT22;16245;51.170;4.884;2023-04-03T20:08:53;6.10;98.30
29203;DHT22;16245;51.170;4.884;2023-04-03T20:11:19;6.10;98.30
29203;DHT22;16245;51.170;4.884;2023-04-03T20:13:49;6.10;98.30
29203;DHT22;16245;51.170;4.884;2023-04-03T20:16:16;6.10;98.50
29203;DHT22;16245;51.170;4.884;2023-04-03T20:18:43;6.10;98.50
29203;DHT22;16245;51.170;4.884;2023-04-03T20:21:09;6.00;98.50
29203;DHT22;16245;51.170;4.884;2023-04-03T20:23:35;6.00;98.50
29203;DHT22;16245;51.170;4.884;2023-04-03T20:26:03;6.00;98.50
29203;DHT22;16245;51.170;4.884;2023-04-03T20:28:30;6.00;98.60
29203;DHT22;16245;51.170;4.884;2023-04-03T20:30:56;5.90;98.60
29203;DHT22;16245;51.170;4.884;2023-04-03T20:33:23;5.90;98.80
29203;DHT22;16245;51.170;4.884;2023-04-03T20:35:51;5.80;99.00
29203;DHT22;16245;51.170;4.884;2023-04-03T20:38:18;5.70;99.20
29203;DHT22;16245;51.170;4.884;2023-04-03T20:40:45;5.70;99.40
29203;DHT22;16245;51.170;4.884;2023-04-03T20:43:11;5.70;99.40
29203;DHT22;16245;51.170;4.884;2023-04-03T20:45:37;5.70;99.50
29203;DHT22;16245;51.170;4.884;2023-04-03T20:48:03;5.60;99.60
29203;DHT22;16245;51.170;4.884;2023-04-03T20:50:31;5.50;99.80
29203;DHT22;16245;51.170;4.884;2023-04-03T20:52:56;5.50;99.80
29203;DHT22;16245;51.170;4.884;2023-04-03T20:55:23;5.40;99.90
29203;DHT22;16245;51.170;4.884;2023-04-03T20:57:48;5.40;99.90
29203;DHT22;16245;51.170;4.884;2023-04-03T21:00:15;5.40;99.90
29203;DHT22;16245;51.170;4.884;2023-04-03T21:02:45;5.40;99.90
29203;DHT22;16245;51.170;4.884;2023-04-03T21:05:12;5.40;99.90
29203;DHT22;16245;51.170;4.884;2023-04-03T21:19:22;5.10;99.90
29203;DHT22;16245;51.170;4.884;2023-04-03T21:21:48;5.10;99.90
29203;DHT22;16245;51.170;4.884;2023-04-03T21:24:16;5.10;99.90
29203;DHT22;16245;51.170;4.884;2023-04-03T21:26:42;5.00;99.90
29203;DHT22;16245;51.170;4.884;2023-04-03T21:29:09;4.90;99.90
29203;DHT22;16245;51.170;4.884;2023-04-03T21:34:17;4.80;99.90
29203;DHT22;16245;51.170;4.884;2023-04-03T21:36:43;4.80;99.90
29203;DHT22;16245;51.170;4.884;2023-04-03T21:39:09;4.80;99.90
29203;DHT22;16245;51.170;4.884;2023-04-03T21:41:35;4.80;99.90
29203;DHT22;16245;51.170;4.884;2023-04-03T21:44:01;4.80;99.90
29203;DHT22;16245;51.170;4.884;2023-04-03T21:46:27;4.80;99.90
29203;DHT22;16245;51.170;4.884;2023-04-03T21:48:53;4.80;99.90
29203;DHT22;16245;51.170;4.884;2023-04-03T21:51:23;4.70;99.90
29203;DHT22;16245;51.170;4.884;2023-04-03T21:53:52;4.70;99.90
29203;DHT22;16245;51.170;4.884;2023-04-03T21:56:21;4.70;99.90
29203;DHT22;16245;51.170;4.884;2023-04-03T21:58:49;4.60;99.90
29203;DHT22;16245;51.170;4.884;2023-04-03T22:01:16;4.60;99.90
29203;DHT22;16245;51.170;4.884;2023-04-03T22:03:42;4.50;99.90
29203;DHT22;16245;51.170;4.884;2023-04-03T22:06:10;4.50;99.90
29203;DHT22;16245;51.170;4.884;2023-04-03T22:08:36;4.50;99.90
29203;DHT22;16245;51.170;4.884;2023-04-03T22:11:13;4.40;99.90
29203;DHT22;16245;51.170;4.884;2023-04-03T22:13:39;4.40;99.90
29203;DHT22;16245;51.170;4.884;2023-04-03T22:16:06;4.30;99.90
29203;DHT22;16245;51.170;4.884;2023-04-03T22:18:32;4.30;99.90
29203;DHT22;16245;51.170;4.884;2023-04-03T22:20:58;4.20;99.90
29203;DHT22;16245;51.170;4.884;2023-04-03T22:23:24;4.20;99.90
29203;DHT22;16245;51.170;4.884;2023-04-03T22:26:07;4.20;99.90
29203;DHT22;16245;51.170;4.884;2023-04-03T22:28:36;4.20;99.90
29203;DHT22;16245;51.170;4.884;2023-04-03T22:31:02;4.20;99.90
29203;DHT22;16245;51.170;4.884;2023-04-03T22:33:29;4.20;99.90
29203;DHT22;16245;51.170;4.884;2023-04-03T22:35:55;4.20;99.90
29203;DHT22;16245;51.170;4.884;2023-04-03T22:38:20;4.10;99.90